sensor_id;sensor_type;location;lat;lon;timestamp;temperature;humidity
15630;DHT22;7914;50.842;0.166;2023-05-23T00:00:40;12.20;62.90
15630;DHT22;7914;50.842;0.166;2023-05-23T00:03:06;12.20;63.40
15630;DHT22;7914;50.842;0.166;2023-05-23T00:05:33;12.20;62.80
15630;DHT22;7914;50.842;0.166;2023-05-23T00:08:00;12.20;63.90
15630;DHT22;7914;50.842;0.166;2023-05-23T00:10:26;12.10;64.60
15630;DHT22;7914;50.842;0.166;2023-05-23T00:12:51;12.10;64.30
15630;DHT22;7914;50.842;0.166;2023-05-23T00:15:17;12.00;64.70
15630;DHT22;7914;50.842;0.166;2023-05-23T00:17:44;12.00;64.40
15630;DHT22;7914;50.842;0.166;2023-05-23T00:20:10;12.00;64.80
15630;DHT22;7914;50.842;0.166;2023-05-23T00:22:38;12.00;64.50
15630;DHT22;7914;50.842;0.166;2023-05-23T00:25:08;12.00;65.10
15630;DHT22;7914;50.842;0.166;2023-05-23T00:27:35;11.90;65.70
15630;DHT22;7914;50.842;0.166;2023-05-23T00:30:00;11.90;65.70
15630;DHT22;7914;50.842;0.166;2023-05-23T00:32:26;11.90;65.90
15630;DHT22;7914;50.842;0.166;2023-05-23T00:34:52;11.80;66.40
15630;DHT22;7914;50.842;0.166;2023-05-23T00:37:19;11.70;67.00
15630;DHT22;7914;50.842;0.166;2023-05-23T00:39:45;11.70;66.90
15630;DHT22;7914;50.842;0.166;2023-05-23T00:42:10;11.70;67.00
15630;DHT22;7914;50.842;0.166;2023-05-23T00:44:36;11.70;67.30
15630;DHT22;7914;50.842;0.166;2023-05-23T00:47:02;11.70;67.30
15630;DHT22;7914;50.842;0.166;2023-05-23T00:49:28;11.60;67.60
15630;DHT22;7914;50.842;0.166;2023-05-23T00:51:54;11.60;67.70
15630;DHT22;7914;50.842;0.166;2023-05-23T00:54:24;11.70;67.90
15630;DHT22;7914;50.842;0.166;2023-05-23T00:56:52;11.60;68.20
15630;DHT22;7914;50.842;0.166;2023-05-23T00:59:18;11.70;68.10
15630;DHT22;7914;50.842;0.166;2023-05-23T01:01:47;11.70;68.10
15630;DHT22;7914;50.842;0.166;2023-05-23T01:04:13;11.60;68.60
15630;DHT22;7914;50.842;0.166;2023-05-23T01:06:38;11.60;69.10
15630;DHT22;7914;50.842;0.166;2023-05-23T01:09:05;11.40;69.60
15630;DHT22;7914;50.842;0.166;2023-05-23T01:11:43;11.50;70.00
15630;DHT22;7914;50.842;0.166;2023-05-23T01:14:18;11.40;70.30
15630;DHT22;7914;50.842;0.166;2023-05-23T01:16:54;11.40;70.40
15630;DHT22;7914;50.842;0.166;2023-05-23T01:22:24;11.40;71.10
15630;DHT22;7914;50.842;0.166;2023-05-23T01:27:59;11.40;71.20
15630;DHT22;7914;50.842;0.166;2023-05-23T01:30:26;11.40;71.60
15630;DHT22;7914;50.842;0.166;2023-05-23T01:32:55;11.30;71.90
15630;DHT22;7914;50.842;0.166;2023-05-23T01:35:26;11.30;72.20
15630;DHT22;7914;50.842;0.166;2023-05-23T01:37:55;11.20;72.50
15630;DHT22;7914;50.842;0.166;2023-05-23T01:40:21;11.30;72.60
15630;DHT22;7914;50.842;0.166;2023-05-23T01:42:48;11.20;72.90
15630;DHT22;7914;50.842;0.166;2023-05-23T01:45:14;11.20;73.00
15630;DHT22;7914;50.842;0.166;2023-05-23T01:47:41;11.20;73.20
15630;DHT22;7914;50.842;0.166;2023-05-23T01:50:08;11.20;73.20
15630;DHT22;7914;50.842;0.166;2023-05-23T01:52:35;11.20;73.70
15630;DHT22;7914;50.842;0.166;2023-05-23T01:55:03;11.20;73.80
15630;DHT22;7914;50.842;0.166;2023-05-23T01:57:32;11.20;73.80
15630;DHT22;7914;50.842;0.166;2023-05-23T01:59:58;11.20;73.70
15630;DHT22;7914;50.842;0.166;2023-05-23T02:02:23;11.10;74.10
15630;DHT22;7914;50.842;0.166;2023-05-23T02:04:49;11.10;74.30
15630;DHT22;7914;50.842;0.166;2023-05-23T02:07:15;11.00;74.70
15630;DHT22;7914;50.842;0.166;2023-05-23T02:09:41;11.00;74.90
15630;DHT22;7914;50.842;0.166;2023-05-23T02:12:06;10.90;75.50
15630;DHT22;7914;50.842;0.166;2023-05-23T02:14:34;10.90;75.60
15630;DHT22;7914;50.842;0.166;2023-05-23T02:17:01;10.90;76.00
15630;DHT22;7914;50.842;0.166;2023-05-23T02:19:28;10.80;76.40
15630;DHT22;7914;50.842;0.166;2023-05-23T02:21:54;10.70;76.70
15630;DHT22;7914;50.842;0.166;2023-05-23T02:24:20;10.70;76.80
15630;DHT22;7914;50.842;0.166;2023-05-23T02:26:46;10.70;77.30
15630;DHT22;7914;50.842;0.166;2023-05-23T02:29:11;10.60;77.40
15630;DHT22;7914;50.842;0.166;2023-05-23T02:31:37;10.60;77.30
15630;DHT22;7914;50.842;0.166;2023-05-23T02:34:02;10.50;78.40
15630;DHT22;7914;50.842;0.166;2023-05-23T02:36:28;10.40;79.10
15630;DHT22;7914;50.842;0.166;2023-05-23T02:38:54;10.40;79.30
15630;DHT22;7914;50.842;0.166;2023-05-23T02:41:20;10.40;79.10
15630;DHT22;7914;50.842;0.166;2023-05-23T02:43:46;10.40;79.10
15630;DHT22;7914;50.842;0.166;2023-05-23T02:46:12;10.40;79.60
15630;DHT22;7914;50.842;0.166;2023-05-23T02:48:38;10.20;80.30
15630;DHT22;7914;50.842;0.166;2023-05-23T02:51:03;10.30;80.50
15630;DHT22;7914;50.842;0.166;2023-05-23T02:53:29;10.20;80.70
15630;DHT22;7914;50.842;0.166;2023-05-23T02:55:55;10.30;80.80
15630;DHT22;7914;50.842;0.166;2023-05-23T02:58:20;10.20;81.40
15630;DHT22;7914;50.842;0.166;2023-05-23T03:00:46;10.20;81.50
15630;DHT22;7914;50.842;0.166;2023-05-23T03:03:12;10.20;82.00
15630;DHT22;7914;50.842;0.166;2023-05-23T03:05:37;10.10;82.60
15630;DHT22;7914;50.842;0.166;2023-05-23T03:08:03;9.90;84.00
15630;DHT22;7914;50.842;0.166;2023-05-23T03:10:29;9.90;83.90
15630;DHT22;7914;50.842;0.166;2023-05-23T03:12:55;9.80;84.10
15630;DHT22;7914;50.842;0.166;2023-05-23T03:15:21;9.80;84.30
15630;DHT22;7914;50.842;0.166;2023-05-23T03:17:47;9.70;84.70
15630;DHT22;7914;50.842;0.166;2023-05-23T03:20:12;9.60;84.80
15630;DHT22;7914;50.842;0.166;2023-05-23T03:22:39;9.60;85.10
15630;DHT22;7914;50.842;0.166;2023-05-23T03:25:08;9.50;85.50
15630;DHT22;7914;50.842;0.166;2023-05-23T03:27:34;9.50;85.90
15630;DHT22;7914;50.842;0.166;2023-05-23T03:29:59;9.60;85.60
15630;DHT22;7914;50.842;0.166;2023-05-23T03:32:25;9.60;85.60
15630;DHT22;7914;50.842;0.166;2023-05-23T03:34:51;9.60;85.90
15630;DHT22;7914;50.842;0.166;2023-05-23T03:37:17;9.60;86.00
15630;DHT22;7914;50.842;0.166;2023-05-23T03:39:42;9.50;86.50
15630;DHT22;7914;50.842;0.166;2023-05-23T03:42:08;9.60;86.70
15630;DHT22;7914;50.842;0.166;2023-05-23T03:44:34;9.50;87.20
15630;DHT22;7914;50.842;0.166;2023-05-23T03:46:59;9.50;87.60
15630;DHT22;7914;50.842;0.166;2023-05-23T03:49:25;9.40;88.10
15630;DHT22;7914;50.842;0.166;2023-05-23T03:51:51;9.40;88.50
15630;DHT22;7914;50.842;0.166;2023-05-23T03:54:16;9.40;88.90
15630;DHT22;7914;50.842;0.166;2023-05-23T03:56:42;9.40;89.20
15630;DHT22;7914;50.842;0.166;2023-05-23T03:59:08;9.40;89.60
15630;DHT22;7914;50.842;0.166;2023-05-23T04:01:34;9.40;89.60
15630;DHT22;7914;50.842;0.166;2023-05-23T04:03:59;9.30;90.00
15630;DHT22;7914;50.842;0.166;2023-05-23T04:06:25;9.30;90.80
15630;DHT22;7914;50.842;0.166;2023-05-23T04:08:51;9.30;90.90
15630;DHT22;7914;50.842;0.166;2023-05-23T04:11:17;9.40;90.80
15630;DHT22;7914;50.842;0.166;2023-05-23T04:13:42;9.40;90.60
15630;DHT22;7914;50.842;0.166;2023-05-23T04:16:09;9.40;90.90
15630;DHT22;7914;50.842;0.166;2023-05-23T04:18:35;9.40;91.20
15630;DHT22;7914;50.842;0.166;2023-05-23T04:21:03;9.40;91.70
15630;DHT22;7914;50.842;0.166;2023-05-23T04:23:29;9.40;92.00
15630;DHT22;7914;50.842;0.166;2023-05-23T04:25:55;9.50;91.90
15630;DHT22;7914;50.842;0.166;2023-05-23T04:28:22;9.50;92.00
15630;DHT22;7914;50.842;0.166;2023-05-23T04:30:48;9.60;92.20
15630;DHT22;7914;50.842;0.166;2023-05-23T04:33:14;9.60;92.20
15630;DHT22;7914;50.842;0.166;2023-05-23T04:35:39;9.60;92.40
15630;DHT22;7914;50.842;0.166;2023-05-23T04:38:05;9.80;92.30
15630;DHT22;7914;50.842;0.166;2023-05-23T04:40:31;9.80;92.00
15630;DHT22;7914;50.842;0.166;2023-05-23T04:42:57;10.00;91.60
15630;DHT22;7914;50.842;0.166;2023-05-23T04:45:22;9.90;91.80
15630;DHT22;7914;50.842;0.166;2023-05-23T04:47:48;10.00;91.70
15630;DHT22;7914;50.842;0.166;2023-05-23T04:50:15;10.20;91.10
15630;DHT22;7914;50.842;0.166;2023-05-23T04:52:41;10.20;91.20
15630;DHT22;7914;50.842;0.166;2023-05-23T04:55:07;10.30;91.10
15630;DHT22;7914;50.842;0.166;2023-05-23T04:57:36;10.30;91.00
15630;DHT22;7914;50.842;0.166;2023-05-23T05:00:03;10.50;90.20
15630;DHT22;7914;50.842;0.166;2023-05-23T05:02:35;10.60;90.30
15630;DHT22;7914;50.842;0.166;2023-05-23T05:05:01;10.70;89.90
15630;DHT22;7914;50.842;0.166;2023-05-23T05:07:29;11.10;89.00
15630;DHT22;7914;50.842;0.166;2023-05-23T05:09:55;11.50;87.30
15630;DHT22;7914;50.842;0.166;2023-05-23T05:12:20;11.80;86.00
15630;DHT22;7914;50.842;0.166;2023-05-23T05:14:46;12.10;84.40
15630;DHT22;7914;50.842;0.166;2023-05-23T05:17:12;12.50;83.60
15630;DHT22;7914;50.842;0.166;2023-05-23T05:19:37;12.80;81.40
15630;DHT22;7914;50.842;0.166;2023-05-23T05:22:03;13.10;81.30
15630;DHT22;7914;50.842;0.166;2023-05-23T05:24:29;13.70;79.00
15630;DHT22;7914;50.842;0.166;2023-05-23T05:26:56;14.10;76.40
15630;DHT22;7914;50.842;0.166;2023-05-23T05:29:21;14.30;75.80
15630;DHT22;7914;50.842;0.166;2023-05-23T05:31:47;14.50;75.00
15630;DHT22;7914;50.842;0.166;2023-05-23T05:34:13;14.10;75.80
15630;DHT22;7914;50.842;0.166;2023-05-23T05:36:38;13.70;77.60
15630;DHT22;7914;50.842;0.166;2023-05-23T05:39:11;13.70;78.00
15630;DHT22;7914;50.842;0.166;2023-05-23T05:41:37;13.90;78.10
15630;DHT22;7914;50.842;0.166;2023-05-23T05:44:03;14.30;77.00
15630;DHT22;7914;50.842;0.166;2023-05-23T05:46:28;14.50;75.60
15630;DHT22;7914;50.842;0.166;2023-05-23T05:48:54;14.50;75.00
15630;DHT22;7914;50.842;0.166;2023-05-23T05:51:20;14.20;75.80
15630;DHT22;7914;50.842;0.166;2023-05-23T05:53:46;13.80;78.50
15630;DHT22;7914;50.842;0.166;2023-05-23T05:56:12;13.90;78.70
15630;DHT22;7914;50.842;0.166;2023-05-23T05:58:37;14.00;77.50
15630;DHT22;7914;50.842;0.166;2023-05-23T06:01:03;13.90;78.20
15630;DHT22;7914;50.842;0.166;2023-05-23T06:03:30;13.60;79.90
15630;DHT22;7914;50.842;0.166;2023-05-23T06:05:56;13.70;79.10
15630;DHT22;7914;50.842;0.166;2023-05-23T06:08:22;13.60;79.80
15630;DHT22;7914;50.842;0.166;2023-05-23T06:10:47;13.60;80.00
15630;DHT22;7914;50.842;0.166;2023-05-23T06:13:13;13.60;79.20
15630;DHT22;7914;50.842;0.166;2023-05-23T06:15:39;13.30;79.60
15630;DHT22;7914;50.842;0.166;2023-05-23T06:18:05;13.30;80.00
15630;DHT22;7914;50.842;0.166;2023-05-23T06:20:31;13.50;79.50
15630;DHT22;7914;50.842;0.166;2023-05-23T06:22:56;13.50;78.70
15630;DHT22;7914;50.842;0.166;2023-05-23T06:25:22;13.50;78.60
15630;DHT22;7914;50.842;0.166;2023-05-23T06:27:48;13.60;78.70
15630;DHT22;7914;50.842;0.166;2023-05-23T06:30:14;13.60;78.20
15630;DHT22;7914;50.842;0.166;2023-05-23T06:32:40;13.70;77.10
15630;DHT22;7914;50.842;0.166;2023-05-23T06:35:06;13.50;77.60
15630;DHT22;7914;50.842;0.166;2023-05-23T06:37:32;13.50;77.60
15630;DHT22;7914;50.842;0.166;2023-05-23T06:39:57;13.60;78.10
15630;DHT22;7914;50.842;0.166;2023-05-23T06:42:23;13.80;77.60
15630;DHT22;7914;50.842;0.166;2023-05-23T06:44:49;14.20;75.50
15630;DHT22;7914;50.842;0.166;2023-05-23T06:47:14;14.40;74.50
15630;DHT22;7914;50.842;0.166;2023-05-23T06:49:40;14.20;75.20
15630;DHT22;7914;50.842;0.166;2023-05-23T06:52:06;14.30;75.60
15630;DHT22;7914;50.842;0.166;2023-05-23T06:54:31;14.90;73.00
15630;DHT22;7914;50.842;0.166;2023-05-23T06:56:57;15.20;71.00
15630;DHT22;7914;50.842;0.166;2023-05-23T06:59:22;15.10;71.30
15630;DHT22;7914;50.842;0.166;2023-05-23T07:01:48;14.90;71.10
15630;DHT22;7914;50.842;0.166;2023-05-23T07:04:14;14.50;70.20
15630;DHT22;7914;50.842;0.166;2023-05-23T07:06:39;14.40;71.60
15630;DHT22;7914;50.842;0.166;2023-05-23T07:09:05;14.50;71.70
15630;DHT22;7914;50.842;0.166;2023-05-23T07:11:31;15.00;67.80
15630;DHT22;7914;50.842;0.166;2023-05-23T07:13:58;15.00;68.00
15630;DHT22;7914;50.842;0.166;2023-05-23T07:16:24;15.40;68.50
15630;DHT22;7914;50.842;0.166;2023-05-23T07:18:49;15.70;68.60
15630;DHT22;7914;50.842;0.166;2023-05-23T07:21:15;16.20;65.90
15630;DHT22;7914;50.842;0.166;2023-05-23T07:23:41;15.90;65.90
15630;DHT22;7914;50.842;0.166;2023-05-23T07:26:06;15.70;66.50
15630;DHT22;7914;50.842;0.166;2023-05-23T07:28:34;15.70;67.10
15630;DHT22;7914;50.842;0.166;2023-05-23T07:31:00;15.50;64.90
15630;DHT22;7914;50.842;0.166;2023-05-23T07:33:26;15.80;66.60
15630;DHT22;7914;50.842;0.166;2023-05-23T07:35:52;15.90;64.30
15630;DHT22;7914;50.842;0.166;2023-05-23T07:38:17;15.90;64.00
15630;DHT22;7914;50.842;0.166;2023-05-23T07:40:43;15.30;65.00
15630;DHT22;7914;50.842;0.166;2023-05-23T07:43:09;15.30;65.10
15630;DHT22;7914;50.842;0.166;2023-05-23T07:45:34;15.30;64.40
15630;DHT22;7914;50.842;0.166;2023-05-23T07:48:00;15.30;64.70
15630;DHT22;7914;50.842;0.166;2023-05-23T07:50:26;15.30;64.90
15630;DHT22;7914;50.842;0.166;2023-05-23T07:52:52;15.80;64.10
15630;DHT22;7914;50.842;0.166;2023-05-23T07:55:18;15.80;63.80
15630;DHT22;7914;50.842;0.166;2023-05-23T07:57:44;15.60;66.20
15630;DHT22;7914;50.842;0.166;2023-05-23T08:00:10;15.80;64.70
15630;DHT22;7914;50.842;0.166;2023-05-23T08:02:36;16.20;62.50
15630;DHT22;7914;50.842;0.166;2023-05-23T08:05:02;16.00;64.10
15630;DHT22;7914;50.842;0.166;2023-05-23T08:07:28;15.70;64.10
15630;DHT22;7914;50.842;0.166;2023-05-23T08:09:54;15.90;64.00
15630;DHT22;7914;50.842;0.166;2023-05-23T08:12:19;16.10;63.20
15630;DHT22;7914;50.842;0.166;2023-05-23T08:14:45;16.20;62.50
15630;DHT22;7914;50.842;0.166;2023-05-23T08:17:11;16.50;62.70
15630;DHT22;7914;50.842;0.166;2023-05-23T08:19:37;16.30;61.80
15630;DHT22;7914;50.842;0.166;2023-05-23T08:22:03;16.00;62.20
15630;DHT22;7914;50.842;0.166;2023-05-23T08:24:29;16.10;61.60
15630;DHT22;7914;50.842;0.166;2023-05-23T08:26:55;15.90;61.40
15630;DHT22;7914;50.842;0.166;2023-05-23T08:29:21;15.70;61.20
15630;DHT22;7914;50.842;0.166;2023-05-23T08:31:46;15.70;63.20
15630;DHT22;7914;50.842;0.166;2023-05-23T08:34:12;15.90;62.70
15630;DHT22;7914;50.842;0.166;2023-05-23T08:36:39;16.10;62.70
15630;DHT22;7914;50.842;0.166;2023-05-23T08:39:04;16.40;60.30
15630;DHT22;7914;50.842;0.166;2023-05-23T08:41:30;16.60;59.60
15630;DHT22;7914;50.842;0.166;2023-05-23T08:43:56;16.60;60.70
15630;DHT22;7914;50.842;0.166;2023-05-23T08:46:23;16.80;58.00
15630;DHT22;7914;50.842;0.166;2023-05-23T08:48:53;16.80;58.90
15630;DHT22;7914;50.842;0.166;2023-05-23T08:51:25;16.70;58.80
15630;DHT22;7914;50.842;0.166;2023-05-23T08:53:51;16.50;59.40
15630;DHT22;7914;50.842;0.166;2023-05-23T08:56:18;16.10;58.70
15630;DHT22;7914;50.842;0.166;2023-05-23T08:58:44;15.80;60.20
15630;DHT22;7914;50.842;0.166;2023-05-23T09:01:12;15.90;61.70
15630;DHT22;7914;50.842;0.166;2023-05-23T09:03:39;16.30;60.40
15630;DHT22;7914;50.842;0.166;2023-05-23T09:06:10;16.70;59.90
15630;DHT22;7914;50.842;0.166;2023-05-23T09:08:37;16.90;59.00
15630;DHT22;7914;50.842;0.166;2023-05-23T09:11:04;17.00;58.50
15630;DHT22;7914;50.842;0.166;2023-05-23T09:13:31;16.70;59.70
15630;DHT22;7914;50.842;0.166;2023-05-23T09:16:05;17.20;58.90
15630;DHT22;7914;50.842;0.166;2023-05-23T09:18:36;17.30;57.30
15630;DHT22;7914;50.842;0.166;2023-05-23T09:21:02;17.20;57.50
15630;DHT22;7914;50.842;0.166;2023-05-23T09:23:39;17.20;57.70
15630;DHT22;7914;50.842;0.166;2023-05-23T09:26:06;16.80;57.10
15630;DHT22;7914;50.842;0.166;2023-05-23T09:28:32;16.20;57.70
15630;DHT22;7914;50.842;0.166;2023-05-23T09:31:00;16.00;57.80
15630;DHT22;7914;50.842;0.166;2023-05-23T09:33:57;16.00;59.10
15630;DHT22;7914;50.842;0.166;2023-05-23T09:36:28;16.30;61.20
15630;DHT22;7914;50.842;0.166;2023-05-23T09:38:54;16.70;61.90
15630;DHT22;7914;50.842;0.166;2023-05-23T09:41:21;16.80;58.90
15630;DHT22;7914;50.842;0.166;2023-05-23T09:43:53;16.80;56.10
15630;DHT22;7914;50.842;0.166;2023-05-23T09:46:20;17.10;58.00
15630;DHT22;7914;50.842;0.166;2023-05-23T09:48:50;17.30;56.70
15630;DHT22;7914;50.842;0.166;2023-05-23T09:51:21;17.00;56.90
15630;DHT22;7914;50.842;0.166;2023-05-23T09:53:48;17.10;56.50
15630;DHT22;7914;50.842;0.166;2023-05-23T09:56:15;17.10;57.60
15630;DHT22;7914;50.842;0.166;2023-05-23T09:58:45;17.10;57.30
15630;DHT22;7914;50.842;0.166;2023-05-23T10:01:12;17.10;57.80
15630;DHT22;7914;50.842;0.166;2023-05-23T10:08:49;17.70;53.90
15630;DHT22;7914;50.842;0.166;2023-05-23T10:16:43;17.30;55.80
15630;DHT22;7914;50.842;0.166;2023-05-23T10:19:19;17.40;54.80
15630;DHT22;7914;50.842;0.166;2023-05-23T10:21:49;17.40;55.30
15630;DHT22;7914;50.842;0.166;2023-05-23T10:24:19;17.70;55.20
15630;DHT22;7914;50.842;0.166;2023-05-23T10:26:46;17.80;53.60
15630;DHT22;7914;50.842;0.166;2023-05-23T10:29:12;17.90;54.20
15630;DHT22;7914;50.842;0.166;2023-05-23T10:31:38;17.90;53.60
15630;DHT22;7914;50.842;0.166;2023-05-23T10:37:06;17.40;56.90
15630;DHT22;7914;50.842;0.166;2023-05-23T10:42:22;17.60;57.10
15630;DHT22;7914;50.842;0.166;2023-05-23T10:44:49;17.60;56.00
15630;DHT22;7914;50.842;0.166;2023-05-23T10:47:25;17.20;54.90
15630;DHT22;7914;50.842;0.166;2023-05-23T10:49:54;17.00;55.70
15630;DHT22;7914;50.842;0.166;2023-05-23T10:52:23;16.90;57.00
15630;DHT22;7914;50.842;0.166;2023-05-23T10:54:54;16.70;55.20
15630;DHT22;7914;50.842;0.166;2023-05-23T10:57:24;16.40;55.70
15630;DHT22;7914;50.842;0.166;2023-05-23T10:59:52;16.20;56.10
15630;DHT22;7914;50.842;0.166;2023-05-23T11:02:26;16.30;56.20
15630;DHT22;7914;50.842;0.166;2023-05-23T11:05:20;16.20;57.10
15630;DHT22;7914;50.842;0.166;2023-05-23T11:10:31;16.80;58.00
15630;DHT22;7914;50.842;0.166;2023-05-23T11:13:05;16.50;56.80
15630;DHT22;7914;50.842;0.166;2023-05-23T11:15:41;16.50;55.30
15630;DHT22;7914;50.842;0.166;2023-05-23T11:18:08;16.70;55.90
15630;DHT22;7914;50.842;0.166;2023-05-23T11:20:36;16.70;56.70
15630;DHT22;7914;50.842;0.166;2023-05-23T11:23:04;16.70;55.30
15630;DHT22;7914;50.842;0.166;2023-05-23T11:25:46;16.80;55.40
15630;DHT22;7914;50.842;0.166;2023-05-23T11:28:13;16.80;53.90
15630;DHT22;7914;50.842;0.166;2023-05-23T11:30:39;16.80;56.40
15630;DHT22;7914;50.842;0.166;2023-05-23T11:33:10;16.90;57.00
15630;DHT22;7914;50.842;0.166;2023-05-23T11:35:40;16.80;55.60
15630;DHT22;7914;50.842;0.166;2023-05-23T11:38:06;16.60;56.10
15630;DHT22;7914;50.842;0.166;2023-05-23T11:40:34;16.70;56.20
15630;DHT22;7914;50.842;0.166;2023-05-23T11:43:01;16.80;54.70
15630;DHT22;7914;50.842;0.166;2023-05-23T11:45:28;17.10;57.60
15630;DHT22;7914;50.842;0.166;2023-05-23T11:47:54;17.20;55.00
15630;DHT22;7914;50.842;0.166;2023-05-23T11:50:20;17.50;53.40
15630;DHT22;7914;50.842;0.166;2023-05-23T11:52:46;17.10;53.40
15630;DHT22;7914;50.842;0.166;2023-05-23T11:55:20;17.20;55.20
15630;DHT22;7914;50.842;0.166;2023-05-23T11:57:47;17.30;55.10
15630;DHT22;7914;50.842;0.166;2023-05-23T12:00:13;17.30;54.50
15630;DHT22;7914;50.842;0.166;2023-05-23T12:02:43;17.50;56.60
15630;DHT22;7914;50.842;0.166;2023-05-23T12:05:11;17.30;52.90
15630;DHT22;7914;50.842;0.166;2023-05-23T12:07:45;17.00;54.30
15630;DHT22;7914;50.842;0.166;2023-05-23T12:10:14;16.70;53.80
15630;DHT22;7914;50.842;0.166;2023-05-23T12:12:41;16.50;55.20
15630;DHT22;7914;50.842;0.166;2023-05-23T12:15:11;16.30;56.50
15630;DHT22;7914;50.842;0.166;2023-05-23T12:17:38;16.30;56.60
15630;DHT22;7914;50.842;0.166;2023-05-23T12:20:05;16.40;57.90
15630;DHT22;7914;50.842;0.166;2023-05-23T12:22:31;16.90;55.90
15630;DHT22;7914;50.842;0.166;2023-05-23T12:24:57;16.90;55.90
15630;DHT22;7914;50.842;0.166;2023-05-23T12:27:33;17.00;56.50
15630;DHT22;7914;50.842;0.166;2023-05-23T12:30:06;16.90;57.80
15630;DHT22;7914;50.842;0.166;2023-05-23T12:32:34;17.20;58.10
15630;DHT22;7914;50.842;0.166;2023-05-23T12:35:00;17.10;57.70
15630;DHT22;7914;50.842;0.166;2023-05-23T12:37:26;17.20;58.20
15630;DHT22;7914;50.842;0.166;2023-05-23T12:39:51;17.40;57.70
15630;DHT22;7914;50.842;0.166;2023-05-23T12:42:17;17.40;56.10
15630;DHT22;7914;50.842;0.166;2023-05-23T12:44:43;17.60;60.10
15630;DHT22;7914;50.842;0.166;2023-05-23T12:47:12;17.40;56.50
15630;DHT22;7914;50.842;0.166;2023-05-23T12:49:39;17.60;57.40
15630;DHT22;7914;50.842;0.166;2023-05-23T12:52:05;17.50;58.50
15630;DHT22;7914;50.842;0.166;2023-05-23T12:54:31;17.50;57.70
15630;DHT22;7914;50.842;0.166;2023-05-23T12:56:57;17.50;56.90
15630;DHT22;7914;50.842;0.166;2023-05-23T12:59:22;17.40;56.30
15630;DHT22;7914;50.842;0.166;2023-05-23T13:01:48;17.50;57.90
15630;DHT22;7914;50.842;0.166;2023-05-23T13:04:13;17.50;58.20
15630;DHT22;7914;50.842;0.166;2023-05-23T13:06:39;17.60;57.80
15630;DHT22;7914;50.842;0.166;2023-05-23T13:09:05;17.80;57.50
15630;DHT22;7914;50.842;0.166;2023-05-23T13:11:31;17.80;57.00
15630;DHT22;7914;50.842;0.166;2023-05-23T13:13:59;17.50;56.60
15630;DHT22;7914;50.842;0.166;2023-05-23T13:16:25;17.60;58.50
15630;DHT22;7914;50.842;0.166;2023-05-23T13:18:51;17.60;56.70
15630;DHT22;7914;50.842;0.166;2023-05-23T13:21:17;17.40;58.40
15630;DHT22;7914;50.842;0.166;2023-05-23T13:23:43;17.50;56.10
15630;DHT22;7914;50.842;0.166;2023-05-23T13:26:09;17.60;56.50
15630;DHT22;7914;50.842;0.166;2023-05-23T13:28:34;18.00;56.40
15630;DHT22;7914;50.842;0.166;2023-05-23T13:31:00;18.10;55.10
15630;DHT22;7914;50.842;0.166;2023-05-23T13:33:27;18.00;56.70
15630;DHT22;7914;50.842;0.166;2023-05-23T13:35:53;18.20;55.70
15630;DHT22;7914;50.842;0.166;2023-05-23T13:38:20;18.20;57.40
15630;DHT22;7914;50.842;0.166;2023-05-23T13:40:46;17.90;56.50
15630;DHT22;7914;50.842;0.166;2023-05-23T13:43:12;17.50;57.90
15630;DHT22;7914;50.842;0.166;2023-05-23T13:45:38;17.60;56.50
15630;DHT22;7914;50.842;0.166;2023-05-23T13:48:03;17.50;57.80
15630;DHT22;7914;50.842;0.166;2023-05-23T13:50:29;17.60;58.30
15630;DHT22;7914;50.842;0.166;2023-05-23T13:52:55;18.00;55.80
15630;DHT22;7914;50.842;0.166;2023-05-23T13:55:20;18.10;56.50
15630;DHT22;7914;50.842;0.166;2023-05-23T13:57:47;17.80;54.40
15630;DHT22;7914;50.842;0.166;2023-05-23T14:00:13;17.50;55.30
15630;DHT22;7914;50.842;0.166;2023-05-23T14:02:39;17.50;57.20
15630;DHT22;7914;50.842;0.166;2023-05-23T14:05:05;17.70;55.40
15630;DHT22;7914;50.842;0.166;2023-05-23T14:07:31;17.90;55.80
15630;DHT22;7914;50.842;0.166;2023-05-23T14:09:57;18.10;54.50
15630;DHT22;7914;50.842;0.166;2023-05-23T14:12:24;18.30;55.50
15630;DHT22;7914;50.842;0.166;2023-05-23T14:14:51;18.50;51.70
15630;DHT22;7914;50.842;0.166;2023-05-23T14:17:17;18.70;54.70
15630;DHT22;7914;50.842;0.166;2023-05-23T14:19:43;18.70;53.90
15630;DHT22;7914;50.842;0.166;2023-05-23T14:22:08;18.50;53.50
15630;DHT22;7914;50.842;0.166;2023-05-23T14:24:35;18.20;54.90
15630;DHT22;7914;50.842;0.166;2023-05-23T14:27:00;18.00;55.50
15630;DHT22;7914;50.842;0.166;2023-05-23T14:29:27;17.80;54.70
15630;DHT22;7914;50.842;0.166;2023-05-23T14:31:52;17.70;54.50
15630;DHT22;7914;50.842;0.166;2023-05-23T14:34:18;17.80;56.30
15630;DHT22;7914;50.842;0.166;2023-05-23T14:36:44;17.80;54.70
15630;DHT22;7914;50.842;0.166;2023-05-23T14:39:09;17.90;56.20
15630;DHT22;7914;50.842;0.166;2023-05-23T14:41:35;17.80;61.00
15630;DHT22;7914;50.842;0.166;2023-05-23T14:44:02;17.60;62.30
15630;DHT22;7914;50.842;0.166;2023-05-23T14:46:28;17.70;63.70
15630;DHT22;7914;50.842;0.166;2023-05-23T14:48:54;17.90;61.90
15630;DHT22;7914;50.842;0.166;2023-05-23T14:51:20;17.90;61.60
15630;DHT22;7914;50.842;0.166;2023-05-23T14:53:45;17.50;61.70
15630;DHT22;7914;50.842;0.166;2023-05-23T14:56:11;17.30;61.60
15630;DHT22;7914;50.842;0.166;2023-05-23T14:58:37;17.10;62.90
15630;DHT22;7914;50.842;0.166;2023-05-23T15:01:04;17.30;62.80
15630;DHT22;7914;50.842;0.166;2023-05-23T15:03:30;17.60;62.80
15630;DHT22;7914;50.842;0.166;2023-05-23T15:05:56;17.70;61.20
15630;DHT22;7914;50.842;0.166;2023-05-23T15:08:22;17.70;63.10
15630;DHT22;7914;50.842;0.166;2023-05-23T15:10:47;17.90;63.20
15630;DHT22;7914;50.842;0.166;2023-05-23T15:13:13;17.90;60.40
15630;DHT22;7914;50.842;0.166;2023-05-23T15:15:39;17.50;62.20
15630;DHT22;7914;50.842;0.166;2023-05-23T15:18:08;17.50;62.20
15630;DHT22;7914;50.842;0.166;2023-05-23T15:20:36;17.70;63.20
15630;DHT22;7914;50.842;0.166;2023-05-23T15:23:05;17.70;63.00
15630;DHT22;7914;50.842;0.166;2023-05-23T15:25:31;17.60;63.10
15630;DHT22;7914;50.842;0.166;2023-05-23T15:27:57;17.60;64.00
15630;DHT22;7914;50.842;0.166;2023-05-23T15:30:22;17.30;65.20
15630;DHT22;7914;50.842;0.166;2023-05-23T15:32:48;17.40;65.20
15630;DHT22;7914;50.842;0.166;2023-05-23T15:35:13;17.30;64.60
15630;DHT22;7914;50.842;0.166;2023-05-23T15:37:40;17.20;64.30
15630;DHT22;7914;50.842;0.166;2023-05-23T15:40:07;17.00;65.60
15630;DHT22;7914;50.842;0.166;2023-05-23T15:42:34;17.00;66.10
15630;DHT22;7914;50.842;0.166;2023-05-23T15:45:00;17.00;66.50
15630;DHT22;7914;50.842;0.166;2023-05-23T15:47:25;17.00;67.80
15630;DHT22;7914;50.842;0.166;2023-05-23T15:49:52;16.90;68.20
15630;DHT22;7914;50.842;0.166;2023-05-23T15:52:17;16.70;66.60
15630;DHT22;7914;50.842;0.166;2023-05-23T15:54:43;16.80;68.00
15630;DHT22;7914;50.842;0.166;2023-05-23T15:57:09;16.90;67.90
15630;DHT22;7914;50.842;0.166;2023-05-23T15:59:35;16.80;68.00
15630;DHT22;7914;50.842;0.166;2023-05-23T16:02:02;16.80;67.30
15630;DHT22;7914;50.842;0.166;2023-05-23T16:04:31;16.70;68.10
15630;DHT22;7914;50.842;0.166;2023-05-23T16:06:57;16.70;69.00
15630;DHT22;7914;50.842;0.166;2023-05-23T16:09:23;16.60;69.70